sensor_id;sensor_type;location;lat;lon;timestamp;temperature;humidity
38333;DHT22;25748;46.670;14.272;2022-08-30T00:01:04;17.60;78.80
38333;DHT22;25748;46.670;14.272;2022-08-30T00:03:45;17.50;78.40
38333;DHT22;25748;46.670;14.272;2022-08-30T00:06:13;17.50;78.20
38333;DHT22;25748;46.670;14.272;2022-08-30T00:08:40;17.50;78.20
38333;DHT22;25748;46.670;14.272;2022-08-30T00:11:09;17.50;77.80
38333;DHT22;25748;46.670;14.272;2022-08-30T00:13:36;17.40;77.50
38333;DHT22;25748;46.670;14.272;2022-08-30T00:16:03;17.40;77.40
38333;DHT22;25748;46.670;14.272;2022-08-30T00:18:32;17.20;78.40
38333;DHT22;25748;46.670;14.272;2022-08-30T00:20:58;17.10;79.50
38333;DHT22;25748;46.670;14.272;2022-08-30T00:23:24;17.10;79.40
38333;DHT22;25748;46.670;14.272;2022-08-30T00:25:50;17.10;78.90
38333;DHT22;25748;46.670;14.272;2022-08-30T00:28:16;17.00;78.60
38333;DHT22;25748;46.670;14.272;2022-08-30T00:30:42;17.00;78.80
38333;DHT22;25748;46.670;14.272;2022-08-30T00:33:09;17.00;79.00
38333;DHT22;25748;46.670;14.272;2022-08-30T00:35:35;16.90;79.00
38333;DHT22;25748;46.670;14.272;2022-08-30T00:38:00;16.90;78.60
38333;DHT22;25748;46.670;14.272;2022-08-30T00:40:26;16.90;78.50
38333;DHT22;25748;46.670;14.272;2022-08-30T00:42:57;16.80;78.60
38333;DHT22;25748;46.670;14.272;2022-08-30T00:45:30;16.80;79.00
38333;DHT22;25748;46.670;14.272;2022-08-30T00:47:56;16.70;79.70
38333;DHT22;25748;46.670;14.272;2022-08-30T00:50:27;16.70;80.30
38333;DHT22;25748;46.670;14.272;2022-08-30T00:52:56;16.70;80.00
38333;DHT22;25748;46.670;14.272;2022-08-30T00:55:22;16.60;80.00
38333;DHT22;25748;46.670;14.272;2022-08-30T00:57:50;16.60;80.30
38333;DHT22;25748;46.670;14.272;2022-08-30T01:00:17;16.60;80.40
38333;DHT22;25748;46.670;14.272;2022-08-30T01:02:43;16.60;80.50
38333;DHT22;25748;46.670;14.272;2022-08-30T01:05:11;16.50;80.90
38333;DHT22;25748;46.670;14.272;2022-08-30T01:07:38;16.50;81.00
38333;DHT22;25748;46.670;14.272;2022-08-30T01:10:05;16.50;81.40
38333;DHT22;25748;46.670;14.272;2022-08-30T01:12:32;16.40;81.30
38333;DHT22;25748;46.670;14.272;2022-08-30T01:14:58;16.40;81.50
38333;DHT22;25748;46.670;14.272;2022-08-30T01:17:25;16.30;81.40
38333;DHT22;25748;46.670;14.272;2022-08-30T01:20:24;16.30;81.60
38333;DHT22;25748;46.670;14.272;2022-08-30T01:25:26;16.30;82.40
38333;DHT22;25748;46.670;14.272;2022-08-30T01:27:57;16.30;82.40
38333;DHT22;25748;46.670;14.272;2022-08-30T01:30:24;16.30;82.00
38333;DHT22;25748;46.670;14.272;2022-08-30T01:32:59;16.20;82.20
38333;DHT22;25748;46.670;14.272;2022-08-30T01:35:26;16.20;82.40
38333;DHT22;25748;46.670;14.272;2022-08-30T01:37:52;16.20;82.50
38333;DHT22;25748;46.670;14.272;2022-08-30T01:40:19;16.20;82.10
38333;DHT22;25748;46.670;14.272;2022-08-30T01:42:45;16.10;82.00
38333;DHT22;25748;46.670;14.272;2022-08-30T01:45:11;16.10;81.90
38333;DHT22;25748;46.670;14.272;2022-08-30T01:47:37;16.00;81.60
38333;DHT22;25748;46.670;14.272;2022-08-30T01:50:05;16.00;81.50
38333;DHT22;25748;46.670;14.272;2022-08-30T01:52:33;16.00;81.80
38333;DHT22;25748;46.670;14.272;2022-08-30T01:54:59;15.90;82.60
38333;DHT22;25748;46.670;14.272;2022-08-30T01:57:26;15.90;83.40
38333;DHT22;25748;46.670;14.272;2022-08-30T01:59:52;15.90;83.90
38333;DHT22;25748;46.670;14.272;2022-08-30T02:02:24;15.90;83.90
38333;DHT22;25748;46.670;14.272;2022-08-30T02:04:51;15.90;83.90
38333;DHT22;25748;46.670;14.272;2022-08-30T02:07:18;15.90;84.20
38333;DHT22;25748;46.670;14.272;2022-08-30T02:09:44;15.90;84.20
38333;DHT22;25748;46.670;14.272;2022-08-30T02:12:09;15.90;84.40
38333;DHT22;25748;46.670;14.272;2022-08-30T02:14:36;15.90;84.30
38333;DHT22;25748;46.670;14.272;2022-08-30T02:17:07;15.80;84.30
38333;DHT22;25748;46.670;14.272;2022-08-30T02:19:33;15.90;84.40
38333;DHT22;25748;46.670;14.272;2022-08-30T02:21:59;15.90;84.40
38333;DHT22;25748;46.670;14.272;2022-08-30T02:24:25;15.80;83.80
38333;DHT22;25748;46.670;14.272;2022-08-30T02:26:51;15.80;83.40
38333;DHT22;25748;46.670;14.272;2022-08-30T02:29:21;15.70;83.40
38333;DHT22;25748;46.670;14.272;2022-08-30T02:31:47;15.70;83.80
38333;DHT22;25748;46.670;14.272;2022-08-30T02:34:14;15.70;83.80
38333;DHT22;25748;46.670;14.272;2022-08-30T02:36:39;15.70;83.50
38333;DHT22;25748;46.670;14.272;2022-08-30T02:39:07;15.60;83.80
38333;DHT22;25748;46.670;14.272;2022-08-30T02:41:33;15.60;83.10
38333;DHT22;25748;46.670;14.272;2022-08-30T02:43:58;15.50;83.00
38333;DHT22;25748;46.670;14.272;2022-08-30T02:46:26;15.50;83.30
38333;DHT22;25748;46.670;14.272;2022-08-30T02:48:52;15.50;83.50
38333;DHT22;25748;46.670;14.272;2022-08-30T02:51:18;15.40;83.60
38333;DHT22;25748;46.670;14.272;2022-08-30T02:53:44;15.40;83.70
38333;DHT22;25748;46.670;14.272;2022-08-30T02:56:11;15.30;84.10
38333;DHT22;25748;46.670;14.272;2022-08-30T02:58:38;15.30;84.30
38333;DHT22;25748;46.670;14.272;2022-08-30T03:01:07;15.30;84.30
38333;DHT22;25748;46.670;14.272;2022-08-30T03:03:33;15.20;84.20
38333;DHT22;25748;46.670;14.272;2022-08-30T03:05:59;15.20;84.30
38333;DHT22;25748;46.670;14.272;2022-08-30T03:08:25;15.20;84.20
38333;DHT22;25748;46.670;14.272;2022-08-30T03:10:50;15.20;84.00
38333;DHT22;25748;46.670;14.272;2022-08-30T03:13:16;15.20;84.40
38333;DHT22;25748;46.670;14.272;2022-08-30T03:15:42;15.10;84.70
38333;DHT22;25748;46.670;14.272;2022-08-30T03:18:07;15.10;84.70
38333;DHT22;25748;46.670;14.272;2022-08-30T03:20:34;15.10;84.70
38333;DHT22;25748;46.670;14.272;2022-08-30T03:23:01;15.00;84.90
38333;DHT22;25748;46.670;14.272;2022-08-30T03:25:26;15.00;84.90
38333;DHT22;25748;46.670;14.272;2022-08-30T03:27:52;15.00;85.00
38333;DHT22;25748;46.670;14.272;2022-08-30T03:30:19;15.00;85.00
38333;DHT22;25748;46.670;14.272;2022-08-30T03:32:45;15.00;85.30
38333;DHT22;25748;46.670;14.272;2022-08-30T03:35:11;14.90;85.20
38333;DHT22;25748;46.670;14.272;2022-08-30T03:37:38;14.90;85.20
38333;DHT22;25748;46.670;14.272;2022-08-30T03:40:06;14.90;85.10
38333;DHT22;25748;46.670;14.272;2022-08-30T03:42:32;14.80;85.00
38333;DHT22;25748;46.670;14.272;2022-08-30T03:44:58;14.80;85.30
38333;DHT22;25748;46.670;14.272;2022-08-30T03:47:23;14.80;85.50
38333;DHT22;25748;46.670;14.272;2022-08-30T03:49:49;14.80;85.10
38333;DHT22;25748;46.670;14.272;2022-08-30T03:52:15;14.80;85.10
38333;DHT22;25748;46.670;14.272;2022-08-30T03:54:40;14.80;85.40
38333;DHT22;25748;46.670;14.272;2022-08-30T03:57:06;14.80;85.50
38333;DHT22;25748;46.670;14.272;2022-08-30T03:59:32;14.70;85.40
38333;DHT22;25748;46.670;14.272;2022-08-30T04:01:58;14.70;85.40
38333;DHT22;25748;46.670;14.272;2022-08-30T04:04:24;14.70;85.70
38333;DHT22;25748;46.670;14.272;2022-08-30T04:06:50;14.70;85.80
38333;DHT22;25748;46.670;14.272;2022-08-30T04:09:17;14.70;86.30
38333;DHT22;25748;46.670;14.272;2022-08-30T04:11:42;14.70;86.30
38333;DHT22;25748;46.670;14.272;2022-08-30T04:14:08;14.70;86.30
38333;DHT22;25748;46.670;14.272;2022-08-30T04:16:34;14.70;86.70
38333;DHT22;25748;46.670;14.272;2022-08-30T04:19:00;14.70;87.10
38333;DHT22;25748;46.670;14.272;2022-08-30T04:21:26;14.80;87.50
38333;DHT22;25748;46.670;14.272;2022-08-30T04:23:52;14.80;87.70
38333;DHT22;25748;46.670;14.272;2022-08-30T04:26:18;14.80;88.10
38333;DHT22;25748;46.670;14.272;2022-08-30T04:28:44;14.80;88.50
38333;DHT22;25748;46.670;14.272;2022-08-30T04:31:12;14.90;88.70
38333;DHT22;25748;46.670;14.272;2022-08-30T04:33:38;14.90;88.90
38333;DHT22;25748;46.670;14.272;2022-08-30T04:36:06;15.00;89.00
38333;DHT22;25748;46.670;14.272;2022-08-30T04:38:33;15.00;89.10
38333;DHT22;25748;46.670;14.272;2022-08-30T04:40:59;15.00;89.00
38333;DHT22;25748;46.670;14.272;2022-08-30T04:43:25;15.10;89.10
38333;DHT22;25748;46.670;14.272;2022-08-30T04:45:52;15.10;89.10
38333;DHT22;25748;46.670;14.272;2022-08-30T04:48:18;15.10;89.10
38333;DHT22;25748;46.670;14.272;2022-08-30T04:50:44;15.20;89.00
38333;DHT22;25748;46.670;14.272;2022-08-30T04:53:12;15.20;89.00
38333;DHT22;25748;46.670;14.272;2022-08-30T04:55:42;15.20;89.20
38333;DHT22;25748;46.670;14.272;2022-08-30T04:58:08;15.30;89.50
38333;DHT22;25748;46.670;14.272;2022-08-30T05:00:35;15.30;89.40
38333;DHT22;25748;46.670;14.272;2022-08-30T05:03:01;15.30;89.50
38333;DHT22;25748;46.670;14.272;2022-08-30T05:05:27;15.30;89.80
38333;DHT22;25748;46.670;14.272;2022-08-30T05:08:08;15.30;89.80
38333;DHT22;25748;46.670;14.272;2022-08-30T05:10:40;15.40;89.90
38333;DHT22;25748;46.670;14.272;2022-08-30T05:13:07;15.50;90.00
38333;DHT22;25748;46.670;14.272;2022-08-30T05:15:33;15.50;89.90
38333;DHT22;25748;46.670;14.272;2022-08-30T05:17:59;15.60;90.00
38333;DHT22;25748;46.670;14.272;2022-08-30T05:20:24;15.70;90.00
38333;DHT22;25748;46.670;14.272;2022-08-30T05:22:50;15.70;90.00
38333;DHT22;25748;46.670;14.272;2022-08-30T05:25:24;15.80;90.10
38333;DHT22;25748;46.670;14.272;2022-08-30T05:27:51;15.90;90.10
38333;DHT22;25748;46.670;14.272;2022-08-30T05:30:18;15.90;90.20
38333;DHT22;25748;46.670;14.272;2022-08-30T05:32:44;16.00;90.10
38333;DHT22;25748;46.670;14.272;2022-08-30T05:35:15;16.10;90.10
38333;DHT22;25748;46.670;14.272;2022-08-30T05:37:42;16.20;90.10
38333;DHT22;25748;46.670;14.272;2022-08-30T05:40:09;16.30;90.10
38333;DHT22;25748;46.670;14.272;2022-08-30T05:42:35;16.40;89.80
38333;DHT22;25748;46.670;14.272;2022-08-30T05:45:02;16.60;89.80
38333;DHT22;25748;46.670;14.272;2022-08-30T05:47:29;16.80;89.60
38333;DHT22;25748;46.670;14.272;2022-08-30T05:49:54;17.10;88.50
38333;DHT22;25748;46.670;14.272;2022-08-30T05:52:20;17.40;86.50
38333;DHT22;25748;46.670;14.272;2022-08-30T05:54:53;17.60;85.60
38333;DHT22;25748;46.670;14.272;2022-08-30T05:57:20;17.80;84.70
38333;DHT22;25748;46.670;14.272;2022-08-30T05:59:46;17.90;83.80
38333;DHT22;25748;46.670;14.272;2022-08-30T06:02:12;17.90;83.00
38333;DHT22;25748;46.670;14.272;2022-08-30T06:04:38;18.00;82.50
38333;DHT22;25748;46.670;14.272;2022-08-30T06:07:04;18.00;82.40
38333;DHT22;25748;46.670;14.272;2022-08-30T06:09:29;18.10;82.30
38333;DHT22;25748;46.670;14.272;2022-08-30T06:11:55;18.10;82.00
38333;DHT22;25748;46.670;14.272;2022-08-30T06:14:22;18.10;82.30
38333;DHT22;25748;46.670;14.272;2022-08-30T06:16:48;18.10;81.90
38333;DHT22;25748;46.670;14.272;2022-08-30T06:19:15;18.20;82.00
38333;DHT22;25748;46.670;14.272;2022-08-30T06:21:41;18.40;82.60
38333;DHT22;25748;46.670;14.272;2022-08-30T06:24:09;18.60;81.80
38333;DHT22;25748;46.670;14.272;2022-08-30T06:26:37;18.70;81.40
38333;DHT22;25748;46.670;14.272;2022-08-30T06:29:06;18.80;81.40
38333;DHT22;25748;46.670;14.272;2022-08-30T06:31:32;19.00;81.20
38333;DHT22;25748;46.670;14.272;2022-08-30T06:33:58;19.10;81.00
38333;DHT22;25748;46.670;14.272;2022-08-30T06:36:24;19.30;80.80
38333;DHT22;25748;46.670;14.272;2022-08-30T06:38:52;19.50;79.80
38333;DHT22;25748;46.670;14.272;2022-08-30T06:41:21;19.80;79.30
38333;DHT22;25748;46.670;14.272;2022-08-30T06:43:47;20.10;78.20
38333;DHT22;25748;46.670;14.272;2022-08-30T06:46:17;20.30;76.00
38333;DHT22;25748;46.670;14.272;2022-08-30T06:48:43;20.50;75.50
38333;DHT22;25748;46.670;14.272;2022-08-30T06:51:09;20.80;74.00
38333;DHT22;25748;46.670;14.272;2022-08-30T06:53:35;21.10;73.20
38333;DHT22;25748;46.670;14.272;2022-08-30T06:56:04;21.30;70.60
38333;DHT22;25748;46.670;14.272;2022-08-30T06:58:32;21.50;69.30
38333;DHT22;25748;46.670;14.272;2022-08-30T07:00:59;21.70;68.20
38333;DHT22;25748;46.670;14.272;2022-08-30T07:03:25;21.90;66.10
38333;DHT22;25748;46.670;14.272;2022-08-30T07:05:55;22.10;64.50
38333;DHT22;25748;46.670;14.272;2022-08-30T07:08:21;22.30;64.50
38333;DHT22;25748;46.670;14.272;2022-08-30T07:10:48;22.60;63.70
38333;DHT22;25748;46.670;14.272;2022-08-30T07:13:15;22.90;62.70
38333;DHT22;25748;46.670;14.272;2022-08-30T07:15:42;23.20;60.50
38333;DHT22;25748;46.670;14.272;2022-08-30T07:18:09;23.50;59.70
38333;DHT22;25748;46.670;14.272;2022-08-30T07:20:54;23.80;58.70
38333;DHT22;25748;46.670;14.272;2022-08-30T07:23:20;24.00;57.80
38333;DHT22;25748;46.670;14.272;2022-08-30T07:25:46;24.20;57.10
38333;DHT22;25748;46.670;14.272;2022-08-30T07:28:12;24.40;57.40
38333;DHT22;25748;46.670;14.272;2022-08-30T07:30:39;24.60;56.20
38333;DHT22;25748;46.670;14.272;2022-08-30T07:33:05;24.80;55.60
38333;DHT22;25748;46.670;14.272;2022-08-30T07:35:31;25.00;55.50
38333;DHT22;25748;46.670;14.272;2022-08-30T07:37:57;25.20;54.50
38333;DHT22;25748;46.670;14.272;2022-08-30T07:40:23;25.30;53.70
38333;DHT22;25748;46.670;14.272;2022-08-30T07:42:49;25.50;53.60
38333;DHT22;25748;46.670;14.272;2022-08-30T07:45:15;25.40;53.00
38333;DHT22;25748;46.670;14.272;2022-08-30T07:47:40;25.50;52.60
38333;DHT22;25748;46.670;14.272;2022-08-30T07:50:07;25.40;52.40
38333;DHT22;25748;46.670;14.272;2022-08-30T07:52:33;25.20;53.00
38333;DHT22;25748;46.670;14.272;2022-08-30T07:54:59;25.50;52.50
38333;DHT22;25748;46.670;14.272;2022-08-30T07:57:26;25.60;51.90
38333;DHT22;25748;46.670;14.272;2022-08-30T07:59:52;25.90;52.40
38333;DHT22;25748;46.670;14.272;2022-08-30T08:02:18;26.00;51.30
38333;DHT22;25748;46.670;14.272;2022-08-30T08:04:45;26.20;51.20
38333;DHT22;25748;46.670;14.272;2022-08-30T08:07:12;26.40;50.80
38333;DHT22;25748;46.670;14.272;2022-08-30T08:09:38;26.40;49.90
38333;DHT22;25748;46.670;14.272;2022-08-30T08:12:05;26.30;49.80
38333;DHT22;25748;46.670;14.272;2022-08-30T08:14:32;26.40;49.70
38333;DHT22;25748;46.670;14.272;2022-08-30T08:16:58;26.50;49.40
38333;DHT22;25748;46.670;14.272;2022-08-30T08:19:24;26.30;49.60
38333;DHT22;25748;46.670;14.272;2022-08-30T08:21:50;26.30;49.60
38333;DHT22;25748;46.670;14.272;2022-08-30T08:24:24;26.50;49.80
38333;DHT22;25748;46.670;14.272;2022-08-30T08:26:49;26.60;49.90
38333;DHT22;25748;46.670;14.272;2022-08-30T08:29:15;26.70;49.60
38333;DHT22;25748;46.670;14.272;2022-08-30T08:31:41;26.90;50.20
38333;DHT22;25748;46.670;14.272;2022-08-30T08:34:07;26.90;48.60
38333;DHT22;25748;46.670;14.272;2022-08-30T08:36:34;27.00;48.70
38333;DHT22;25748;46.670;14.272;2022-08-30T08:39:00;26.90;49.20
38333;DHT22;25748;46.670;14.272;2022-08-30T08:42:01;27.00;48.80
38333;DHT22;25748;46.670;14.272;2022-08-30T08:50:19;27.20;48.50
38333;DHT22;25748;46.670;14.272;2022-08-30T08:55:51;27.20;48.20
38333;DHT22;25748;46.670;14.272;2022-08-30T08:58:50;27.30;48.20
38333;DHT22;25748;46.670;14.272;2022-08-30T09:01:20;27.40;48.00
38333;DHT22;25748;46.670;14.272;2022-08-30T09:03:46;27.60;47.60
38333;DHT22;25748;46.670;14.272;2022-08-30T09:08:44;27.70;47.00
38333;DHT22;25748;46.670;14.272;2022-08-30T09:11:11;28.10;46.90
38333;DHT22;25748;46.670;14.272;2022-08-30T09:13:42;27.90;46.90
38333;DHT22;25748;46.670;14.272;2022-08-30T09:16:08;28.30;46.60
38333;DHT22;25748;46.670;14.272;2022-08-30T09:21:07;28.60;46.30
38333;DHT22;25748;46.670;14.272;2022-08-30T09:23:33;29.00;45.90
38333;DHT22;25748;46.670;14.272;2022-08-30T09:26:08;29.40;45.90
38333;DHT22;25748;46.670;14.272;2022-08-30T09:28:44;29.30;45.00
38333;DHT22;25748;46.670;14.272;2022-08-30T09:31:45;29.60;45.00
38333;DHT22;25748;46.670;14.272;2022-08-30T09:34:17;29.70;44.60
38333;DHT22;25748;46.670;14.272;2022-08-30T09:36:48;29.90;44.40
38333;DHT22;25748;46.670;14.272;2022-08-30T09:39:34;30.00;44.60
38333;DHT22;25748;46.670;14.272;2022-08-30T09:44:45;30.00;44.40
38333;DHT22;25748;46.670;14.272;2022-08-30T09:47:28;29.50;44.40
38333;DHT22;25748;46.670;14.272;2022-08-30T09:50:21;29.00;44.30
38333;DHT22;25748;46.670;14.272;2022-08-30T09:53:02;29.00;44.50
38333;DHT22;25748;46.670;14.272;2022-08-30T09:55:48;29.00;45.00
38333;DHT22;25748;46.670;14.272;2022-08-30T09:58:39;28.80;44.20
38333;DHT22;25748;46.670;14.272;2022-08-30T10:01:13;28.90;44.50
38333;DHT22;25748;46.670;14.272;2022-08-30T10:06:46;29.70;44.50
38333;DHT22;25748;46.670;14.272;2022-08-30T10:15:06;31.00;42.40
38333;DHT22;25748;46.670;14.272;2022-08-30T10:20:28;31.50;41.10
38333;DHT22;25748;46.670;14.272;2022-08-30T10:25:40;32.00;40.60
38333;DHT22;25748;46.670;14.272;2022-08-30T10:28:28;32.00;40.80
38333;DHT22;25748;46.670;14.272;2022-08-30T10:31:00;32.20;40.00
38333;DHT22;25748;46.670;14.272;2022-08-30T10:33:41;32.60;39.70
38333;DHT22;25748;46.670;14.272;2022-08-30T10:36:10;32.80;39.70
38333;DHT22;25748;46.670;14.272;2022-08-30T10:38:39;33.20;40.30
38333;DHT22;25748;46.670;14.272;2022-08-30T10:44:25;33.70;39.50
38333;DHT22;25748;46.670;14.272;2022-08-30T10:47:21;34.10;39.40
38333;DHT22;25748;46.670;14.272;2022-08-30T10:49:49;34.60;39.30
38333;DHT22;25748;46.670;14.272;2022-08-30T10:55:38;34.90;39.00
38333;DHT22;25748;46.670;14.272;2022-08-30T10:58:10;35.20;39.00
38333;DHT22;25748;46.670;14.272;2022-08-30T11:00:39;35.40;39.00
38333;DHT22;25748;46.670;14.272;2022-08-30T11:11:37;36.00;37.90
38333;DHT22;25748;46.670;14.272;2022-08-30T11:14:07;36.20;38.20
38333;DHT22;25748;46.670;14.272;2022-08-30T11:16:46;36.40;37.80
38333;DHT22;25748;46.670;14.272;2022-08-30T11:22:11;36.30;37.10
38333;DHT22;25748;46.670;14.272;2022-08-30T11:27:58;35.90;37.10
38333;DHT22;25748;46.670;14.272;2022-08-30T11:33:00;36.20;37.80
38333;DHT22;25748;46.670;14.272;2022-08-30T11:35:48;35.80;37.30
38333;DHT22;25748;46.670;14.272;2022-08-30T12:00:37;36.50;36.60
38333;DHT22;25748;46.670;14.272;2022-08-30T12:10:54;36.60;36.90
38333;DHT22;25748;46.670;14.272;2022-08-30T12:18:55;37.00;36.10
38333;DHT22;25748;46.670;14.272;2022-08-30T12:21:30;36.90;35.90
38333;DHT22;25748;46.670;14.272;2022-08-30T12:24:04;37.00;35.80
38333;DHT22;25748;46.670;14.272;2022-08-30T12:26:40;37.20;36.20
38333;DHT22;25748;46.670;14.272;2022-08-30T12:29:25;37.00;36.20
38333;DHT22;25748;46.670;14.272;2022-08-30T12:31:57;36.90;36.40
38333;DHT22;25748;46.670;14.272;2022-08-30T12:42:33;36.90;36.10
38333;DHT22;25748;46.670;14.272;2022-08-30T12:45:03;36.30;35.00
38333;DHT22;25748;46.670;14.272;2022-08-30T12:47:51;35.70;35.30
38333;DHT22;25748;46.670;14.272;2022-08-30T12:50:22;35.40;36.10
38333;DHT22;25748;46.670;14.272;2022-08-30T12:55:28;34.40;35.60
38333;DHT22;25748;46.670;14.272;2022-08-30T13:00:24;34.10;35.10
38333;DHT22;25748;46.670;14.272;2022-08-30T13:02:56;34.10;35.00
38333;DHT22;25748;46.670;14.272;2022-08-30T13:05:30;34.10;35.10
38333;DHT22;25748;46.670;14.272;2022-08-30T13:08:22;34.30;35.60
38333;DHT22;25748;46.670;14.272;2022-08-30T13:11:11;34.50;35.60
38333;DHT22;25748;46.670;14.272;2022-08-30T13:13:41;34.80;35.70
38333;DHT22;25748;46.670;14.272;2022-08-30T13:18:47;35.00;35.20
38333;DHT22;25748;46.670;14.272;2022-08-30T13:21:31;35.20;35.70
38333;DHT22;25748;46.670;14.272;2022-08-30T13:24:00;35.30;35.70
38333;DHT22;25748;46.670;14.272;2022-08-30T13:26:27;35.40;35.90
38333;DHT22;25748;46.670;14.272;2022-08-30T13:28:59;35.60;35.20
38333;DHT22;25748;46.670;14.272;2022-08-30T13:31:27;35.40;34.60
38333;DHT22;25748;46.670;14.272;2022-08-30T13:33:53;34.80;34.40
38333;DHT22;25748;46.670;14.272;2022-08-30T13:36:34;34.40;34.80
38333;DHT22;25748;46.670;14.272;2022-08-30T13:39:00;33.70;34.60
38333;DHT22;25748;46.670;14.272;2022-08-30T13:41:27;33.50;34.80
38333;DHT22;25748;46.670;14.272;2022-08-30T13:43:53;33.20;34.30
38333;DHT22;25748;46.670;14.272;2022-08-30T13:46:19;32.90;34.90
38333;DHT22;25748;46.670;14.272;2022-08-30T13:48:48;32.80;35.40
38333;DHT22;25748;46.670;14.272;2022-08-30T13:51:14;32.60;35.00
38333;DHT22;25748;46.670;14.272;2022-08-30T13:53:39;32.50;35.00
38333;DHT22;25748;46.670;14.272;2022-08-30T13:56:06;32.40;35.80
38333;DHT22;25748;46.670;14.272;2022-08-30T13:58:31;32.20;35.90
38333;DHT22;25748;46.670;14.272;2022-08-30T14:00:57;32.00;35.40
38333;DHT22;25748;46.670;14.272;2022-08-30T14:03:23;31.90;35.70
38333;DHT22;25748;46.670;14.272;2022-08-30T14:05:50;31.70;35.70
38333;DHT22;25748;46.670;14.272;2022-08-30T14:08:21;31.60;36.00
38333;DHT22;25748;46.670;14.272;2022-08-30T14:10:47;31.50;36.40
38333;DHT22;25748;46.670;14.272;2022-08-30T14:13:13;31.30;36.50
38333;DHT22;25748;46.670;14.272;2022-08-30T14:15:39;31.20;36.30
38333;DHT22;25748;46.670;14.272;2022-08-30T14:18:06;31.10;36.20
38333;DHT22;25748;46.670;14.272;2022-08-30T14:20:32;31.00;36.60
38333;DHT22;25748;46.670;14.272;2022-08-30T14:23:00;30.90;36.90
38333;DHT22;25748;46.670;14.272;2022-08-30T14:25:25;30.80;36.80
38333;DHT22;25748;46.670;14.272;2022-08-30T14:27:56;30.70;37.00
38333;DHT22;25748;46.670;14.272;2022-08-30T14:30:22;30.70;37.20
38333;DHT22;25748;46.670;14.272;2022-08-30T14:32:48;30.60;37.60
38333;DHT22;25748;46.670;14.272;2022-08-30T14:35:14;30.60;37.80
38333;DHT22;25748;46.670;14.272;2022-08-30T14:37:43;30.60;37.80
38333;DHT22;25748;46.670;14.272;2022-08-30T14:40:09;30.50;37.50
38333;DHT22;25748;46.670;14.272;2022-08-30T14:42:35;30.50;37.50
38333;DHT22;25748;46.670;14.272;2022-08-30T14:45:01;30.30;36.80
38333;DHT22;25748;46.670;14.272;2022-08-30T14:47:26;30.30;36.90
38333;DHT22;25748;46.670;14.272;2022-08-30T14:49:52;30.30;36.80
38333;DHT22;25748;46.670;14.272;2022-08-30T14:52:18;30.30;37.10
38333;DHT22;25748;46.670;14.272;2022-08-30T14:54:44;30.20;36.80
38333;DHT22;25748;46.670;14.272;2022-08-30T14:57:09;30.20;37.20
38333;DHT22;25748;46.670;14.272;2022-08-30T14:59:35;30.20;37.50
38333;DHT22;25748;46.670;14.272;2022-08-30T15:02:01;30.10;38.00
38333;DHT22;25748;46.670;14.272;2022-08-30T15:04:27;30.00;37.00
38333;DHT22;25748;46.670;14.272;2022-08-30T15:06:54;29.90;37.10
38333;DHT22;25748;46.670;14.272;2022-08-30T15:09:21;29.90;37.00
38333;DHT22;25748;46.670;14.272;2022-08-30T15:11:47;29.80;37.30
38333;DHT22;25748;46.670;14.272;2022-08-30T15:14:14;29.80;37.50
38333;DHT22;25748;46.670;14.272;2022-08-30T15:16:40;29.70;38.40
38333;DHT22;25748;46.670;14.272;2022-08-30T15:19:08;29.70;39.20
38333;DHT22;25748;46.670;14.272;2022-08-30T15:21:46;29.70;38.60
38333;DHT22;25748;46.670;14.272;2022-08-30T15:24:18;29.70;38.70
38333;DHT22;25748;46.670;14.272;2022-08-30T15:26:44;29.60;38.80
38333;DHT22;25748;46.670;14.272;2022-08-30T15:29:11;29.60;39.00
38333;DHT22;25748;46.670;14.272;2022-08-30T15:31:38;29.50;39.00
38333;DHT22;25748;46.670;14.272;2022-08-30T15:34:09;29.50;39.20
38333;DHT22;25748;46.670;14.272;2022-08-30T15:36:35;29.50;39.30
38333;DHT22;25748;46.670;14.272;2022-08-30T15:39:02;29.40;39.20
38333;DHT22;25748;46.670;14.272;2022-08-30T15:41:28;29.30;38.90
38333;DHT22;25748;46.670;14.272;2022-08-30T15:43:54;29.20;38.60
38333;DHT22;25748;46.670;14.272;2022-08-30T15:46:23;29.20;38.60
38333;DHT22;25748;46.670;14.272;2022-08-30T15:48:53;29.20;38.60
38333;DHT22;25748;46.670;14.272;2022-08-30T15:51:23;29.10;38.60
38333;DHT22;25748;46.670;14.272;2022-08-30T15:53:50;29.10;38.80
38333;DHT22;25748;46.670;14.272;2022-08-30T15:56:17;29.10;39.20
38333;DHT22;25748;46.670;14.272;2022-08-30T15:58:43;29.00;38.80
38333;DHT22;25748;46.670;14.272;2022-08-30T16:01:09;28.90;38.50
38333;DHT22;25748;46.670;14.272;2022-08-30T16:03:36;28.90;38.60
38333;DHT22;25748;46.670;14.272;2022-08-30T16:06:09;28.80;39.10
38333;DHT22;25748;46.670;14.272;2022-08-30T16:08:35;28.60;40.00
38333;DHT22;25748;46.670;14.272;2022-08-30T16:11:03;28.20;40.70
38333;DHT22;25748;46.670;14.272;2022-08-30T16:13:29;28.00;40.90
38333;DHT22;25748;46.670;14.272;2022-08-30T16:15:59;27.80;41.30
38333;DHT22;25748;46.670;14.272;2022-08-30T16:18:25;27.60;41.60
38333;DHT22;25748;46.670;14.272;2022-08-30T16:21:04;27.50;41.70
38333;DHT22;25748;46.670;14.272;2022-08-30T16:23:30;27.30;42.00
38333;DHT22;25748;46.670;14.272;2022-08-30T16:25:56;27.20;41.90
38333;DHT22;25748;46.670;14.272;2022-08-30T16:28:22;27.10;42.20
38333;DHT22;25748;46.670;14.272;2022-08-30T16:30:47;27.10;42.40
38333;DHT22;25748;46.670;14.272;2022-08-30T16:33:13;27.10;42.40
38333;DHT22;25748;46.670;14.272;2022-08-30T16:35:39;27.00;42.60
38333;DHT22;25748;46.670;14.272;2022-08-30T16:38:04;26.80;42.50
38333;DHT22;25748;46.670;14.272;2022-08-30T16:40:30;26.70;42.60
38333;DHT22;25748;46.670;14.272;2022-08-30T16:42:56;26.60;42.70
38333;DHT22;25748;46.670;14.272;2022-08-30T16:45:21;26.40;42.80
38333;DHT22;25748;46.670;14.272;2022-08-30T16:47:47;26.40;42.90
38333;DHT22;25748;46.670;14.272;2022-08-30T16:50:13;26.30;43.10
38333;DHT22;25748;46.670;14.272;2022-08-30T16:52:41;26.30;43.20
38333;DHT22;25748;46.670;14.272;2022-08-30T16:55:07;26.30;43.40
38333;DHT22;25748;46.670;14.272;2022-08-30T16:57:33;26.20;43.60
38333;DHT22;25748;46.670;14.272;2022-08-30T16:59:58;26.10;43.60
38333;DHT22;25748;46.670;14.272;2022-08-30T17:02:24;26.00;43.70
38333;DHT22;25748;46.670;14.272;2022-08-30T17:04:49;26.00;43.70
38333;DHT22;25748;46.670;14.272;2022-08-30T17:07:15;25.90;44.00
38333;DHT22;25748;46.670;14.272;2022-08-30T17:09:41;25.80;43.90
38333;DHT22;25748;46.670;14.272;2022-08-30T17:12:07;25.80;44.20